createdAt,value
2023-03-17T00:01:51.223Z,2.60
2023-03-17T00:04:24.249Z,2.58
2023-03-17T00:06:52.662Z,2.55
2023-03-17T00:09:21.113Z,2.58
2023-03-17T00:11:48.964Z,2.45
2023-03-17T00:14:16.618Z,2.39
2023-03-17T00:16:49.737Z,2.30
2023-03-17T00:19:24.130Z,2.43
2023-03-17T00:21:50.611Z,2.54
2023-03-17T00:24:17.173Z,2.62
2023-03-17T00:26:43.936Z,2.75
2023-03-17T00:29:10.738Z,2.75
2023-03-17T00:31:39.420Z,2.75
2023-03-17T00:34:06.475Z,2.84
2023-03-17T00:36:34.457Z,2.94
2023-03-17T00:39:01.432Z,2.88
2023-03-17T00:41:29.324Z,2.88
2023-03-17T00:43:55.903Z,2.78
2023-03-17T00:46:28.999Z,2.77
2023-03-17T00:48:55.639Z,2.67
2023-03-17T00:51:23.322Z,2.74
2023-03-17T00:53:50.674Z,2.69
2023-03-17T00:56:20.664Z,2.65
2023-03-17T00:58:48.843Z,2.61
2023-03-17T01:01:15.897Z,2.63
2023-03-17T01:03:42.535Z,2.71
2023-03-17T01:06:13.683Z,2.77
2023-03-17T01:08:42.157Z,2.73
2023-03-17T01:11:20.537Z,2.67
2023-03-17T01:13:47.682Z,2.74
2023-03-17T01:16:15.453Z,2.64
2023-03-17T01:18:42.248Z,2.53
2023-03-17T01:21:08.846Z,2.45
2023-03-17T01:23:35.690Z,2.55
2023-03-17T01:26:02.183Z,2.49
2023-03-17T01:28:28.863Z,2.39
2023-03-17T01:30:56.905Z,2.39
2023-03-17T01:33:24.204Z,2.44
2023-03-17T01:35:51.286Z,2.49
2023-03-17T01:38:18.828Z,2.45
2023-03-17T01:40:51.857Z,2.49
2023-03-17T01:43:25.084Z,2.46
2023-03-17T01:46:27.705Z,2.33
2023-03-17T01:49:27.569Z,2.23
2023-03-17T01:52:06.183Z,2.24
2023-03-17T01:54:42.437Z,2.24
2023-03-17T01:57:21.233Z,2.26
2023-03-17T01:59:55.350Z,2.30
2023-03-17T02:02:36.273Z,2.27
2023-03-17T02:05:06.902Z,2.32
2023-03-17T02:07:33.950Z,2.23
2023-03-17T02:10:02.966Z,2.08
2023-03-17T02:12:30.364Z,2.08
2023-03-17T02:14:59.409Z,2.03
2023-03-17T02:17:28.929Z,2.05
2023-03-17T02:19:56.691Z,2.12
2023-03-17T02:22:23.872Z,2.19
2023-03-17T02:24:59.389Z,2.14
2023-03-17T02:27:38.553Z,2.20
2023-03-17T02:30:09.491Z,2.28
2023-03-17T02:32:37.705Z,2.34
2023-03-17T02:35:07.327Z,2.23
2023-03-17T02:37:34.584Z,2.11
2023-03-17T02:40:01.745Z,2.00
2023-03-17T02:42:29.112Z,1.99
2023-03-17T02:44:55.595Z,2.05
2023-03-17T02:47:22.128Z,2.04
2023-03-17T02:49:50.262Z,2.11
2023-03-17T02:52:17.064Z,2.07
2023-03-17T02:54:43.747Z,2.02
2023-03-17T02:57:11.012Z,2.07
2023-03-17T02:59:37.697Z,2.17
2023-03-17T03:02:04.312Z,2.22
2023-03-17T03:04:31.416Z,2.19
2023-03-17T03:07:08.029Z,2.17
2023-03-17T03:09:34.483Z,1.86
2023-03-17T03:12:00.959Z,1.99
2023-03-17T03:14:27.582Z,2.07
2023-03-17T03:16:54.380Z,2.02
2023-03-17T03:19:20.835Z,1.96
2023-03-17T03:21:47.297Z,1.83
2023-03-17T03:24:13.776Z,1.85
2023-03-17T03:26:41.312Z,1.88
2023-03-17T03:29:07.931Z,1.87
2023-03-17T03:31:34.477Z,1.83
2023-03-17T03:34:00.984Z,1.76
2023-03-17T03:36:27.709Z,1.76
2023-03-17T03:38:54.453Z,1.56
2023-03-17T03:41:21.291Z,1.60
2023-03-17T03:43:47.825Z,1.71
2023-03-17T03:46:15.561Z,1.64
2023-03-17T03:48:42.073Z,1.48
2023-03-17T03:51:08.583Z,1.36
2023-03-17T03:53:35.427Z,1.49
2023-03-17T03:56:02.028Z,1.62
2023-03-17T03:58:28.703Z,1.62
2023-03-17T04:00:55.160Z,1.65
2023-03-17T04:03:21.614Z,1.73
2023-03-17T04:05:51.110Z,1.71
2023-03-17T04:08:17.546Z,1.63
2023-03-17T04:10:44.517Z,1.46
2023-03-17T04:13:11.004Z,1.38
2023-03-17T04:15:37.480Z,1.52
2023-03-17T04:18:05.210Z,1.63
2023-03-17T04:20:32.334Z,1.64
2023-03-17T04:22:59.128Z,1.60
2023-03-17T04:25:26.204Z,1.58
2023-03-17T04:27:52.730Z,1.47
2023-03-17T04:30:19.309Z,1.42
2023-03-17T04:32:46.390Z,1.50
2023-03-17T04:35:21.475Z,1.57
2023-03-17T04:37:49.220Z,1.59
2023-03-17T04:40:18.191Z,1.50
2023-03-17T04:42:45.409Z,1.41
2023-03-17T04:45:15.386Z,1.45
2023-03-17T04:47:42.042Z,1.45
2023-03-17T04:50:10.450Z,1.49
2023-03-17T04:52:37.837Z,1.51
2023-03-17T04:55:08.236Z,1.53
2023-03-17T04:57:36.550Z,1.56
2023-03-17T05:00:07.945Z,1.58
2023-03-17T05:02:34.729Z,1.43
2023-03-17T05:05:01.980Z,1.39
2023-03-17T05:07:28.436Z,1.35
2023-03-17T05:09:54.893Z,1.39
2023-03-17T05:12:21.405Z,1.41
2023-03-17T05:14:47.996Z,1.40
2023-03-17T05:17:14.612Z,1.41
2023-03-17T05:19:41.299Z,1.38
2023-03-17T05:22:07.985Z,1.37
2023-03-17T05:24:34.560Z,1.43
2023-03-17T05:27:01.005Z,1.39
2023-03-17T05:29:27.737Z,1.38
2023-03-17T05:31:54.242Z,1.38
2023-03-17T05:34:20.781Z,1.49
2023-03-17T05:36:47.279Z,1.49
2023-03-17T05:39:14.724Z,1.45
2023-03-17T05:41:41.455Z,1.53
2023-03-17T05:44:08.729Z,1.39
2023-03-17T05:46:35.274Z,1.52
2023-03-17T05:49:02.106Z,1.66
2023-03-17T05:51:28.664Z,1.58
2023-03-17T05:53:55.144Z,1.61
2023-03-17T05:56:21.905Z,1.70
2023-03-17T05:58:48.812Z,1.78
2023-03-17T06:01:15.414Z,1.84
2023-03-17T06:03:42.110Z,1.85
2023-03-17T06:06:09.175Z,1.85
2023-03-17T06:08:35.912Z,1.83
2023-03-17T06:11:02.402Z,1.90
2023-03-17T06:13:29.034Z,1.99
2023-03-17T06:15:57.277Z,1.93
2023-03-17T06:18:23.917Z,1.92
2023-03-17T06:20:50.667Z,1.93
2023-03-17T06:23:18.731Z,1.93
2023-03-17T06:25:45.233Z,1.83
2023-03-17T06:28:11.682Z,1.89
2023-03-17T06:30:40.485Z,2.04
2023-03-17T06:33:08.151Z,2.12
2023-03-17T06:35:35.260Z,2.20
2023-03-17T06:38:02.336Z,2.12
2023-03-17T06:40:29.541Z,2.22
2023-03-17T06:42:57.025Z,2.27
2023-03-17T06:45:23.801Z,2.30
2023-03-17T06:47:50.542Z,2.28
2023-03-17T06:50:17.382Z,2.34
2023-03-17T06:52:46.269Z,2.43
2023-03-17T06:55:13.680Z,2.49
2023-03-17T06:57:40.418Z,2.49
2023-03-17T07:00:08.487Z,2.34
2023-03-17T07:02:35.005Z,2.43
2023-03-17T07:05:01.731Z,2.56
2023-03-17T07:07:28.340Z,2.64
2023-03-17T07:09:54.928Z,2.62
2023-03-17T07:12:22.092Z,2.60
2023-03-17T07:14:48.629Z,2.62
2023-03-17T07:17:15.936Z,2.72
2023-03-17T07:19:43.624Z,2.87
2023-03-17T07:22:12.804Z,2.88
2023-03-17T07:24:41.807Z,2.99
2023-03-17T07:27:08.658Z,3.11
2023-03-17T07:29:35.215Z,3.21
2023-03-17T07:32:02.275Z,3.24
2023-03-17T07:34:28.852Z,3.26
2023-03-17T07:36:55.449Z,3.44
2023-03-17T07:39:21.981Z,3.61
2023-03-17T07:41:52.860Z,3.69
2023-03-17T07:44:19.665Z,3.75
2023-03-17T07:46:46.356Z,3.98
2023-03-17T07:49:13.228Z,4.15
2023-03-17T07:51:42.975Z,4.13
2023-03-17T07:54:15.157Z,4.15
2023-03-17T07:56:42.832Z,4.40
2023-03-17T07:59:10.779Z,4.47
2023-03-17T08:01:38.255Z,4.56
2023-03-17T08:04:05.436Z,4.74
2023-03-17T08:06:32.519Z,4.84
2023-03-17T08:08:59.450Z,4.85
2023-03-17T08:11:29.243Z,4.84
2023-03-17T08:13:55.984Z,5.04
2023-03-17T08:16:31.987Z,5.29
2023-03-17T08:18:59.488Z,5.50
2023-03-17T08:21:26.585Z,5.65
2023-03-17T08:23:54.455Z,5.83
2023-03-17T08:26:21.899Z,6.05
2023-03-17T08:28:50.162Z,6.22
2023-03-17T08:31:20.974Z,6.39
2023-03-17T08:33:51.300Z,6.50
2023-03-17T08:36:20.179Z,6.66
2023-03-17T08:38:48.212Z,6.86
2023-03-17T08:41:19.604Z,6.94
2023-03-17T08:43:47.366Z,6.91
2023-03-17T08:46:20.453Z,6.88
2023-03-17T08:48:49.255Z,7.00
2023-03-17T08:51:18.945Z,7.16
2023-03-17T08:53:46.633Z,7.27
2023-03-17T08:56:14.463Z,7.41
2023-03-17T08:58:42.565Z,7.39
2023-03-17T09:01:13.223Z,7.45
2023-03-17T09:03:41.913Z,7.54
2023-03-17T09:06:12.132Z,7.52
2023-03-17T09:08:44.569Z,7.59
2023-03-17T09:11:16.474Z,7.62
2023-03-17T09:13:43.048Z,7.70
2023-03-17T09:16:09.859Z,7.82
2023-03-17T09:18:36.837Z,7.83
2023-03-17T09:21:03.587Z,7.93
2023-03-17T09:23:30.146Z,7.94
2023-03-17T09:25:57.078Z,8.16
2023-03-17T09:28:24.475Z,8.19
2023-03-17T09:30:51.601Z,8.29
2023-03-17T09:33:18.919Z,8.43
2023-03-17T09:35:45.457Z,8.57
2023-03-17T09:38:12.689Z,8.73
2023-03-17T09:40:48.628Z,8.78
2023-03-17T09:43:42.855Z,8.88
2023-03-17T09:46:53.647Z,8.97
2023-03-17T09:49:25.208Z,9.21
2023-03-17T09:51:53.142Z,9.41
2023-03-17T09:54:38.034Z,9.44
2023-03-17T09:57:16.631Z,9.70
2023-03-17T09:59:47.863Z,9.89
2023-03-17T10:02:30.055Z,10.03
2023-03-17T10:04:57.655Z,10.18
2023-03-17T10:07:45.327Z,10.28
2023-03-17T10:10:20.768Z,10.52
2023-03-17T10:13:21.653Z,10.50
2023-03-17T10:16:03.386Z,10.56
2023-03-17T10:18:48.228Z,10.63
2023-03-17T10:21:24.224Z,10.84
2023-03-17T10:23:53.148Z,10.81
2023-03-17T10:26:42.470Z,10.87
2023-03-17T10:29:17.506Z,10.90
2023-03-17T10:31:44.836Z,11.08
2023-03-17T10:34:20.176Z,11.22
2023-03-17T10:36:51.414Z,11.35
2023-03-17T10:39:21.801Z,11.44
2023-03-17T10:42:08.787Z,11.42
2023-03-17T10:44:55.027Z,11.53
2023-03-17T10:47:37.928Z,11.49
2023-03-17T10:50:20.322Z,11.59
2023-03-17T10:52:52.676Z,11.66
2023-03-17T10:55:26.486Z,11.75
2023-03-17T10:58:16.030Z,11.82
2023-03-17T11:01:07.981Z,11.69
2023-03-17T11:03:40.379Z,11.74
2023-03-17T11:06:14.542Z,11.79
2023-03-17T11:08:55.352Z,11.87
2023-03-17T11:11:34.630Z,12.04
2023-03-17T11:14:13.409Z,12.14
2023-03-17T11:17:00.885Z,12.15
2023-03-17T11:20:13.182Z,12.18
2023-03-17T11:22:54.948Z,12.25
2023-03-17T11:25:23.408Z,12.40
2023-03-17T11:28:06.807Z,12.42
2023-03-17T11:31:00.429Z,12.44
2023-03-17T11:33:39.360Z,12.48
2023-03-17T11:36:28.674Z,12.63
2023-03-17T11:39:13.577Z,12.72
2023-03-17T11:41:50.980Z,13.07
2023-03-17T11:44:41.853Z,12.87
2023-03-17T11:47:28.313Z,12.98
2023-03-17T11:50:19.907Z,13.03
2023-03-17T11:53:27.418Z,13.06
2023-03-17T11:56:02.562Z,13.15
2023-03-17T11:58:46.935Z,13.11
2023-03-17T12:01:22.837Z,13.38
2023-03-17T12:04:16.355Z,13.41
2023-03-17T12:06:51.940Z,13.57
2023-03-17T12:09:33.056Z,13.65
2023-03-17T12:12:03.767Z,13.76
2023-03-17T12:14:46.466Z,13.77
2023-03-17T12:17:49.079Z,13.87
2023-03-17T12:20:31.013Z,13.97
2023-03-17T12:23:40.060Z,14.00
2023-03-17T12:26:27.105Z,14.14
2023-03-17T12:28:59.734Z,13.86
2023-03-17T12:31:34.179Z,14.03
2023-03-17T12:34:16.823Z,14.08
2023-03-17T12:36:44.654Z,14.27
2023-03-17T12:39:27.129Z,14.35
2023-03-17T12:41:59.663Z,14.43
2023-03-17T12:44:41.411Z,14.51
2023-03-17T12:47:29.063Z,14.58
2023-03-17T12:49:58.437Z,14.58
2023-03-17T12:52:40.249Z,14.65
2023-03-17T12:55:15.561Z,14.60
2023-03-17T12:57:48.084Z,14.84
2023-03-17T13:00:28.216Z,14.81
2023-03-17T13:03:21.009Z,14.89
2023-03-17T13:05:52.926Z,15.04
2023-03-17T13:08:35.978Z,14.87
2023-03-17T13:11:27.586Z,15.05
2023-03-17T13:13:54.329Z,15.13
2023-03-17T13:16:34.038Z,15.10
2023-03-17T13:19:32.399Z,15.01
2023-03-17T13:22:21.529Z,14.98
2023-03-17T13:24:53.688Z,15.04
2023-03-17T13:27:32.079Z,15.04
2023-03-17T13:30:22.039Z,15.15
2023-03-17T13:33:11.868Z,15.30
2023-03-17T13:36:01.778Z,15.57
2023-03-17T13:38:41.836Z,15.54
2023-03-17T13:41:31.817Z,15.52
2023-03-17T13:44:17.679Z,15.50
2023-03-17T13:46:47.260Z,15.68
2023-03-17T13:49:26.635Z,15.82
2023-03-17T13:52:08.066Z,15.84
2023-03-17T13:54:48.862Z,15.69
2023-03-17T13:57:38.183Z,15.48
2023-03-17T14:00:07.261Z,15.52
2023-03-17T14:02:39.725Z,15.48
2023-03-17T14:05:29.277Z,15.55
2023-03-17T14:08:22.210Z,15.51
2023-03-17T14:10:56.382Z,15.44
2023-03-17T14:13:32.009Z,15.39
2023-03-17T14:16:13.764Z,15.28
2023-03-17T14:18:49.660Z,15.38
2023-03-17T14:21:26.249Z,15.51
2023-03-17T14:23:58.718Z,15.50
2023-03-17T14:26:30.492Z,15.45
2023-03-17T14:29:04.620Z,15.44
2023-03-17T14:31:32.099Z,15.35
2023-03-17T14:34:01.390Z,15.41
2023-03-17T14:36:33.843Z,15.49
2023-03-17T14:39:00.302Z,15.48
2023-03-17T14:41:28.963Z,15.36
2023-03-17T14:44:01.482Z,15.28
2023-03-17T14:46:40.437Z,15.30
2023-03-17T14:49:18.884Z,15.24
2023-03-17T14:51:49.696Z,15.15
2023-03-17T14:54:23.324Z,15.08
2023-03-17T14:56:57.724Z,15.13
2023-03-17T14:59:41.027Z,14.96
2023-03-17T15:02:24.524Z,14.86
2023-03-17T15:05:23.833Z,14.80
2023-03-17T15:07:50.869Z,14.70
2023-03-17T15:10:25.183Z,14.62
2023-03-17T15:13:02.274Z,14.63
2023-03-17T15:15:35.597Z,14.32
2023-03-17T15:18:13.469Z,14.27
2023-03-17T15:20:43.728Z,14.38
2023-03-17T15:23:18.284Z,14.35
2023-03-17T15:25:56.940Z,14.29
2023-03-17T15:28:31.892Z,14.13
2023-03-17T15:31:12.786Z,14.11
2023-03-17T15:33:41.292Z,14.19
2023-03-17T15:36:31.407Z,14.08
2023-03-17T15:38:59.070Z,13.95
2023-03-17T15:41:26.037Z,13.95
2023-03-17T15:43:53.573Z,13.95
2023-03-17T15:46:27.409Z,13.92
2023-03-17T15:48:54.233Z,13.92
2023-03-17T15:51:21.052Z,13.93
2023-03-17T15:53:47.583Z,13.98
2023-03-17T15:56:20.732Z,13.85
2023-03-17T15:58:51.361Z,13.87
2023-03-17T16:01:19.726Z,13.76
2023-03-17T16:03:48.043Z,13.76
2023-03-17T16:06:22.238Z,13.62
2023-03-17T16:08:50.380Z,13.60
2023-03-17T16:11:30.590Z,13.46
2023-03-17T16:13:59.706Z,13.50
2023-03-17T16:16:39.822Z,13.42
2023-03-17T16:19:14.750Z,13.48
2023-03-17T16:21:41.390Z,13.48
2023-03-17T16:24:19.078Z,13.40
2023-03-17T16:26:46.217Z,13.35
2023-03-17T16:29:14.462Z,13.29
2023-03-17T16:31:41.722Z,13.26
2023-03-17T16:34:17.532Z,13.16
2023-03-17T16:36:44.515Z,13.07
2023-03-17T16:39:20.476Z,13.02
2023-03-17T16:41:48.467Z,13.04
2023-03-17T16:44:18.820Z,13.05
2023-03-17T16:46:45.645Z,13.01
2023-03-17T16:49:18.494Z,12.93
2023-03-17T16:51:45.896Z,12.85
2023-03-17T16:54:12.794Z,12.71
2023-03-17T16:56:41.274Z,12.61
2023-03-17T16:59:21.653Z,12.55
2023-03-17T17:01:48.170Z,12.61
2023-03-17T17:04:14.739Z,12.64
2023-03-17T17:06:41.306Z,12.53
2023-03-17T17:09:07.764Z,12.47
2023-03-17T17:11:34.232Z,12.41
2023-03-17T17:14:00.729Z,12.31
2023-03-17T17:16:33.407Z,12.18
2023-03-17T17:19:02.651Z,12.07
2023-03-17T17:21:29.710Z,12.02
2023-03-17T17:23:56.503Z,11.96
2023-03-17T17:26:23.559Z,11.78
2023-03-17T17:28:50.389Z,11.72
2023-03-17T17:31:17.018Z,11.64
2023-03-17T17:33:43.576Z,11.53
2023-03-17T17:36:16.781Z,11.47
2023-03-17T17:38:43.892Z,11.48
2023-03-17T17:41:12.320Z,11.42
2023-03-17T17:43:39.529Z,11.42
2023-03-17T17:46:22.943Z,11.33
2023-03-17T17:48:50.111Z,11.36
2023-03-17T17:51:16.839Z,11.38
2023-03-17T17:53:44.202Z,11.28
2023-03-17T17:56:16.057Z,11.04
2023-03-17T17:58:42.846Z,11.11
2023-03-17T18:01:12.231Z,11.07
2023-03-17T18:03:41.537Z,11.06
2023-03-17T18:06:08.638Z,10.98
2023-03-17T18:08:35.220Z,10.96
2023-03-17T18:11:01.780Z,10.89
2023-03-17T18:13:28.555Z,10.83
2023-03-17T18:15:55.131Z,10.84
2023-03-17T18:18:24.622Z,10.88
2023-03-17T18:20:52.494Z,10.77
2023-03-17T18:23:20.090Z,10.53
2023-03-17T18:25:47.075Z,10.47
2023-03-17T18:28:13.587Z,10.33
2023-03-17T18:30:40.608Z,10.38
2023-03-17T18:33:18.030Z,10.24
2023-03-17T18:35:48.469Z,10.14
2023-03-17T18:38:15.109Z,10.06
2023-03-17T18:40:43.494Z,9.84
2023-03-17T18:43:11.012Z,9.86
2023-03-17T18:45:37.886Z,9.86
2023-03-17T18:48:04.489Z,9.73
2023-03-17T18:50:31.265Z,9.70
2023-03-17T18:52:58.142Z,9.75
2023-03-17T18:55:24.843Z,9.91
2023-03-17T18:57:51.807Z,9.82
2023-03-17T19:00:18.713Z,9.72
2023-03-17T19:02:46.320Z,9.80
2023-03-17T19:05:14.178Z,9.87
2023-03-17T19:07:40.965Z,9.92
2023-03-17T19:10:09.949Z,9.75
2023-03-17T19:12:37.121Z,9.61
2023-03-17T19:15:06.096Z,9.55
2023-03-17T19:17:33.222Z,9.53
2023-03-17T19:20:00.065Z,9.38
2023-03-17T19:22:26.988Z,9.27
2023-03-17T19:24:53.616Z,9.20
2023-03-17T19:27:20.615Z,9.12
2023-03-17T19:29:47.159Z,9.17
2023-03-17T19:32:13.816Z,9.18
2023-03-17T19:34:40.440Z,9.10
2023-03-17T19:37:07.014Z,9.15
2023-03-17T19:39:33.869Z,9.05
2023-03-17T19:42:00.843Z,8.96
2023-03-17T19:44:27.690Z,8.94
2023-03-17T19:46:54.473Z,8.98
2023-03-17T19:49:21.168Z,9.03
2023-03-17T19:51:48.865Z,9.11
2023-03-17T19:54:15.884Z,9.15
2023-03-17T19:56:42.545Z,9.17
2023-03-17T19:59:12.252Z,9.15
2023-03-17T20:01:38.866Z,9.11
2023-03-17T20:04:06.870Z,9.06
2023-03-17T20:06:34.601Z,9.09
2023-03-17T20:09:03.902Z,9.03
2023-03-17T20:11:33.971Z,8.90
2023-03-17T20:14:02.742Z,8.87
2023-03-17T20:16:32.646Z,8.82
2023-03-17T20:19:01.253Z,8.82
2023-03-17T20:21:28.205Z,8.93
2023-03-17T20:23:54.808Z,9.06
2023-03-17T20:26:21.357Z,8.98
2023-03-17T20:28:48.156Z,9.00
2023-03-17T20:31:14.959Z,8.98
2023-03-17T20:33:41.941Z,8.88
2023-03-17T20:36:09.334Z,8.89
2023-03-17T20:38:39.097Z,8.75
2023-03-17T20:41:15.942Z,8.71
2023-03-17T20:43:43.395Z,8.78
2023-03-17T20:46:19.581Z,8.73
2023-03-17T20:48:48.178Z,8.74
2023-03-17T20:51:16.695Z,8.75
2023-03-17T20:53:46.102Z,8.74
2023-03-17T20:56:15.938Z,8.72
2023-03-17T20:58:47.001Z,8.64
2023-03-17T21:01:15.364Z,8.63
2023-03-17T21:03:44.924Z,8.60
2023-03-17T21:06:13.201Z,8.59
2023-03-17T21:08:40.566Z,8.47
2023-03-17T21:11:08.550Z,8.42
2023-03-17T21:13:35.295Z,8.48
2023-03-17T21:16:02.831Z,8.50
2023-03-17T21:18:29.684Z,8.56
2023-03-17T21:20:56.701Z,8.66
2023-03-17T21:23:23.694Z,8.69
2023-03-17T21:25:55.948Z,8.64
2023-03-17T21:28:23.268Z,8.65
2023-03-17T21:30:52.854Z,8.70
2023-03-17T21:33:21.998Z,8.75
2023-03-17T21:35:48.813Z,8.69
2023-03-17T21:38:16.324Z,8.60
2023-03-17T21:40:42.987Z,8.65
2023-03-17T21:43:10.628Z,8.65
2023-03-17T21:45:38.848Z,8.60
2023-03-17T21:48:05.477Z,8.69
2023-03-17T21:50:32.817Z,8.78
2023-03-17T21:52:59.466Z,8.83
2023-03-17T21:55:26.083Z,8.82
2023-03-17T21:57:52.764Z,8.77
2023-03-17T22:00:23.596Z,8.73
2023-03-17T22:02:51.652Z,8.75
2023-03-17T22:05:18.409Z,8.66
2023-03-17T22:07:45.239Z,8.55
2023-03-17T22:10:12.106Z,8.40
2023-03-17T22:12:39.076Z,8.45
2023-03-17T22:15:08.824Z,8.47
2023-03-17T22:17:36.247Z,8.52
2023-03-17T22:20:06.776Z,8.60
2023-03-17T22:22:34.374Z,8.67
2023-03-17T22:25:04.932Z,8.59
2023-03-17T22:27:31.947Z,8.57
2023-03-17T22:29:58.465Z,8.60
2023-03-17T22:32:24.972Z,8.71
2023-03-17T22:34:53.006Z,8.70
2023-03-17T22:37:19.614Z,8.65
2023-03-17T22:39:46.077Z,8.62
2023-03-17T22:42:12.760Z,8.61
2023-03-17T22:44:40.215Z,8.62
2023-03-17T22:47:06.801Z,8.64
2023-03-17T22:49:33.287Z,8.68
2023-03-17T22:51:59.801Z,8.67
2023-03-17T22:54:26.860Z,8.63
2023-03-17T22:56:53.395Z,8.66
2023-03-17T22:59:19.849Z,8.65
2023-03-17T23:01:46.340Z,8.55
2023-03-17T23:04:12.918Z,8.55
2023-03-17T23:06:41.673Z,8.50
2023-03-17T23:09:09.365Z,8.48
2023-03-17T23:11:37.340Z,8.48
2023-03-17T23:14:04.376Z,8.53
2023-03-17T23:16:31.200Z,8.60
2023-03-17T23:18:58.136Z,8.62
2023-03-17T23:21:34.834Z,8.57
2023-03-17T23:24:03.931Z,8.61
2023-03-17T23:26:32.031Z,8.61
2023-03-17T23:28:58.566Z,8.61
2023-03-17T23:31:25.533Z,8.66
2023-03-17T23:33:52.560Z,8.67
2023-03-17T23:36:19.481Z,8.70
2023-03-17T23:38:46.650Z,8.70
2023-03-17T23:41:15.199Z,8.66
2023-03-17T23:43:41.927Z,8.61
2023-03-17T23:46:08.547Z,8.62
2023-03-17T23:48:35.589Z,8.67
2023-03-17T23:51:02.836Z,8.73
2023-03-17T23:53:29.413Z,8.72
2023-03-17T23:55:55.922Z,8.61
2023-03-17T23:58:22.724Z,8.61
